createdAt,value
2023-02-11T00:00:58.531Z,102320.91
2023-02-11T00:03:30.386Z,102312.75
2023-02-11T00:06:01.954Z,102321.75
2023-02-11T00:08:33.833Z,102315.13
2023-02-11T00:11:05.430Z,102320.84
2023-02-11T00:13:37.253Z,102323.50
2023-02-11T00:16:08.774Z,102328.75
2023-02-11T00:18:40.653Z,102334.84
2023-02-11T00:21:12.134Z,102326.13
2023-02-11T00:23:43.671Z,102342.03
2023-02-11T00:26:15.293Z,102349.34
2023-02-11T00:28:47.115Z,102349.47
2023-02-11T00:31:18.697Z,102346.00
2023-02-11T00:33:50.698Z,102337.28
2023-02-11T00:36:22.244Z,102326.88
2023-02-11T00:38:54.061Z,102320.16
2023-02-11T00:41:26.056Z,102306.28
2023-02-11T00:43:57.880Z,102317.28
2023-02-11T00:46:29.425Z,102304.25
2023-02-11T00:49:01.159Z,102309.88
2023-02-11T00:51:32.650Z,102324.44
2023-02-11T00:54:04.446Z,102342.38
2023-02-11T00:56:35.989Z,102342.53
2023-02-11T00:59:07.843Z,102337.59
2023-02-11T01:01:39.928Z,102333.81
2023-02-11T01:04:11.837Z,102329.13
2023-02-11T01:06:43.343Z,102318.22
2023-02-11T01:09:15.224Z,102320.28
2023-02-11T01:11:46.702Z,102317.28
2023-02-11T01:14:18.833Z,102308.66
2023-02-11T01:16:50.342Z,102298.00
2023-02-11T01:19:21.854Z,102289.41
2023-02-11T01:21:53.331Z,102288.31
2023-02-11T01:24:25.066Z,102281.28
2023-02-11T01:26:56.567Z,102260.94
2023-02-11T01:29:28.232Z,102258.88
2023-02-11T01:32:00.003Z,102258.63
2023-02-11T01:34:31.824Z,102262.91
2023-02-11T01:37:03.317Z,102250.72
2023-02-11T01:39:34.824Z,102242.84
2023-02-11T01:42:06.306Z,102261.34
2023-02-11T01:44:37.859Z,102257.03
2023-02-11T01:47:09.379Z,102244.03
2023-02-11T01:49:41.224Z,102255.97
2023-02-11T01:52:12.724Z,102237.53
2023-02-11T01:55:03.171Z,102235.34
2023-02-11T01:57:34.871Z,102223.84
2023-02-11T02:00:06.716Z,102225.38
2023-02-11T02:02:38.549Z,102214.59
2023-02-11T02:05:10.047Z,102222.94
2023-02-11T02:07:41.812Z,102213.25
2023-02-11T02:10:13.380Z,102225.19
2023-02-11T02:12:44.900Z,102217.19
2023-02-11T02:15:16.382Z,102220.78
2023-02-11T02:17:48.171Z,102220.56
2023-02-11T02:20:19.671Z,102201.41
2023-02-11T02:22:51.455Z,102202.00
2023-02-11T02:25:22.950Z,102211.69
2023-02-11T02:27:55.080Z,102221.44
2023-02-11T02:30:26.626Z,102209.94
2023-02-11T02:32:58.651Z,102210.63
2023-02-11T02:35:30.254Z,102214.78
2023-02-11T02:38:01.946Z,102213.44
2023-02-11T02:40:33.577Z,102208.56
2023-02-11T02:43:05.357Z,102207.31
2023-02-11T02:45:36.864Z,102195.38
2023-02-11T02:48:08.573Z,102187.63
2023-02-11T02:50:40.082Z,102192.75
2023-02-11T02:53:11.888Z,102179.06
2023-02-11T02:55:43.414Z,102177.69
2023-02-11T02:58:14.910Z,102183.38
2023-02-11T03:00:46.435Z,102188.47
2023-02-11T03:03:18.220Z,102185.19
2023-02-11T03:05:50.136Z,102183.25
2023-02-11T03:08:22.130Z,102175.59
2023-02-11T03:10:53.717Z,102170.19
2023-02-11T03:13:25.535Z,102158.81
2023-02-11T03:15:57.085Z,102164.50
2023-02-11T03:18:28.982Z,102168.03
2023-02-11T03:21:00.571Z,102154.72
2023-02-11T03:23:32.326Z,102156.50
2023-02-11T03:26:03.886Z,102161.78
2023-02-11T03:28:35.761Z,102167.47
2023-02-11T03:31:07.411Z,102165.28
2023-02-11T03:33:39.387Z,102169.72
2023-02-11T03:36:10.970Z,102168.59
2023-02-11T03:38:42.808Z,102169.28
2023-02-11T03:41:14.356Z,102179.00
2023-02-11T03:43:46.258Z,102179.56
2023-02-11T03:46:17.892Z,102172.50
2023-02-11T03:48:49.876Z,102159.88
2023-02-11T03:51:21.381Z,102171.53
2023-02-11T03:53:53.087Z,102165.69
2023-02-11T03:56:24.697Z,102166.66
2023-02-11T03:58:56.621Z,102167.38
2023-02-11T04:01:28.206Z,102176.66
2023-02-11T04:04:00.108Z,102170.19
2023-02-11T04:06:31.638Z,102171.69
2023-02-11T04:09:03.379Z,102166.44
2023-02-11T04:11:34.942Z,102164.75
2023-02-11T04:14:06.771Z,102155.88
2023-02-11T04:16:38.334Z,102153.94
2023-02-11T04:19:09.955Z,102151.16
2023-02-11T04:21:41.495Z,102160.47
2023-02-11T04:24:16.595Z,102158.66
2023-02-11T04:26:48.180Z,102162.53
2023-02-11T04:29:20.103Z,102160.72
2023-02-11T04:31:51.654Z,102168.91
2023-02-11T04:34:24.513Z,102161.84
2023-02-11T04:36:56.044Z,102158.50
2023-02-11T04:39:27.887Z,102156.84
2023-02-11T04:41:59.414Z,102147.25
2023-02-11T04:44:31.245Z,102153.09
2023-02-11T04:47:03.059Z,102146.59
2023-02-11T04:49:34.663Z,102145.63
2023-02-11T04:52:06.675Z,102136.44
2023-02-11T04:54:38.232Z,102123.25
2023-02-11T04:57:10.316Z,102126.16
2023-02-11T04:59:41.859Z,102115.31
2023-02-11T05:02:13.790Z,102133.66
2023-02-11T05:04:45.356Z,102120.03
2023-02-11T05:07:17.023Z,102112.09
2023-02-11T05:09:48.537Z,102116.94
2023-02-11T05:12:20.565Z,102093.78
2023-02-11T05:14:52.091Z,102100.72
2023-02-11T05:17:24.016Z,102093.91
2023-02-11T05:19:55.612Z,102082.53
2023-02-11T05:22:27.290Z,102089.19
2023-02-11T05:24:58.811Z,102096.41
2023-02-11T05:27:30.734Z,102082.69
2023-02-11T05:30:02.703Z,102080.88
2023-02-11T05:32:34.221Z,102070.03
2023-02-11T05:35:06.059Z,102063.63
2023-02-11T05:37:37.704Z,102070.72
2023-02-11T05:40:09.613Z,102070.72
2023-02-11T05:42:41.250Z,102069.16
2023-02-11T05:45:13.207Z,102055.72
2023-02-11T05:47:44.793Z,102061.13
2023-02-11T05:50:16.770Z,102057.81
2023-02-11T05:52:48.312Z,102046.72
2023-02-11T05:55:20.162Z,102045.03
2023-02-11T05:57:51.678Z,102051.84
2023-02-11T06:00:23.541Z,102057.25
2023-02-11T06:02:55.178Z,102061.00
2023-02-11T06:05:27.109Z,102064.47
2023-02-11T06:07:58.619Z,102056.56
2023-02-11T06:10:30.450Z,102058.06
2023-02-11T06:13:02.033Z,102059.44
2023-02-11T06:15:33.773Z,102065.16
2023-02-11T06:18:05.340Z,102081.94
2023-02-11T06:20:37.684Z,102077.22
2023-02-11T06:23:09.366Z,102076.94
2023-02-11T06:25:41.340Z,102071.66
2023-02-11T06:28:13.120Z,102074.59
2023-02-11T06:30:45.212Z,102075.38
2023-02-11T06:33:16.787Z,102084.56
2023-02-11T06:35:48.767Z,102080.78
2023-02-11T06:38:20.539Z,102078.00
2023-02-11T06:40:52.439Z,102077.31
2023-02-11T06:43:23.980Z,102065.75
2023-02-11T06:45:55.914Z,101891.19
2023-02-11T06:48:27.436Z,102060.22
2023-02-11T06:50:59.226Z,102069.94
2023-02-11T06:53:30.751Z,102058.84
2023-02-11T06:56:02.293Z,102063.84
2023-02-11T06:58:33.860Z,102063.44
2023-02-11T07:01:06.834Z,102058.56
2023-02-11T07:03:38.448Z,102058.81
2023-02-11T07:06:10.330Z,102069.91
2023-02-11T07:08:43.014Z,102063.19
2023-02-11T07:11:14.889Z,102065.00
2023-02-11T07:13:46.477Z,102061.53
2023-02-11T07:16:18.605Z,102046.38
2023-02-11T07:18:50.184Z,102051.50
2023-02-11T07:21:22.106Z,102050.09
2023-02-11T07:23:53.647Z,102041.19
2023-02-11T07:26:29.322Z,102033.69
2023-02-11T07:29:00.859Z,102032.84
2023-02-11T07:31:32.947Z,102040.03
2023-02-11T07:34:04.562Z,102030.81
2023-02-11T07:36:36.135Z,102032.47
2023-02-11T07:39:07.658Z,102036.03
2023-02-11T07:41:39.624Z,102020.19
2023-02-11T07:44:11.137Z,102028.44
2023-02-11T07:46:45.146Z,102020.88
2023-02-11T07:49:16.800Z,102024.28
2023-02-11T07:51:49.680Z,102025.78
2023-02-11T07:54:21.208Z,102037.41
2023-02-11T07:56:53.060Z,101913.00
2023-02-11T07:59:25.035Z,102031.09
2023-02-11T08:01:56.998Z,102031.50
2023-02-11T08:04:28.541Z,102029.31
2023-02-11T08:07:00.442Z,102037.34
2023-02-11T08:09:34.418Z,102030.94
2023-02-11T08:12:06.168Z,102030.63
2023-02-11T08:14:37.722Z,102031.91
2023-02-11T08:17:09.621Z,102037.25
2023-02-11T08:19:41.230Z,102046.72
2023-02-11T08:22:13.142Z,102060.00
2023-02-11T08:24:44.662Z,102070.78
2023-02-11T08:27:16.653Z,102075.16
2023-02-11T08:29:48.188Z,102082.03
2023-02-11T08:32:20.121Z,102076.13
2023-02-11T08:34:52.167Z,102077.94
2023-02-11T08:37:23.712Z,102079.44
2023-02-11T08:39:55.259Z,102088.25
2023-02-11T08:42:26.814Z,102073.94
2023-02-11T08:44:58.443Z,102082.88
2023-02-11T08:47:30.330Z,102084.75
2023-02-11T08:50:01.888Z,102073.88
2023-02-11T08:52:33.498Z,102081.88
2023-02-11T08:55:05.342Z,102084.06
2023-02-11T08:57:37.247Z,102061.31
2023-02-11T09:00:11.093Z,102058.22
2023-02-11T09:02:43.103Z,102037.44
2023-02-11T09:05:14.685Z,102039.69
2023-02-11T09:07:46.465Z,102037.28
2023-02-11T09:10:18.016Z,102050.31
2023-02-11T09:12:49.922Z,102051.50
2023-02-11T09:15:21.477Z,102041.59
2023-02-11T09:17:53.155Z,102055.97
2023-02-11T09:20:24.690Z,102051.66
2023-02-11T09:22:56.744Z,102060.97
2023-02-11T09:25:28.298Z,102055.31
2023-02-11T09:28:00.222Z,102057.63
2023-02-11T09:30:31.837Z,102082.13
2023-02-11T09:33:03.664Z,102085.44
2023-02-11T09:35:35.267Z,102079.41
2023-02-11T09:38:07.142Z,102068.44
2023-02-11T09:40:38.678Z,102074.50
2023-02-11T09:43:10.631Z,102067.81
2023-02-11T09:45:42.870Z,102095.41
2023-02-11T09:48:14.482Z,102081.13
2023-02-11T09:50:46.374Z,102088.06
2023-02-11T09:53:17.904Z,102103.81
2023-02-11T09:55:49.879Z,102098.88
2023-02-11T09:58:21.419Z,102111.50
2023-02-11T10:00:53.206Z,102112.59
2023-02-11T10:03:24.890Z,102120.47
2023-02-11T10:05:56.725Z,102137.00
2023-02-11T10:08:28.276Z,102119.75
2023-02-11T10:11:00.170Z,102118.66
2023-02-11T10:13:31.679Z,102117.00
2023-02-11T10:16:03.245Z,102116.66
2023-02-11T10:18:34.955Z,102130.28
2023-02-11T10:21:06.522Z,102107.38
2023-02-11T10:23:38.086Z,102110.13
2023-02-11T10:26:09.767Z,102110.19
2023-02-11T10:28:41.391Z,102111.97
2023-02-11T10:31:15.900Z,102117.94
2023-02-11T10:33:47.765Z,102124.09
2023-02-11T10:36:19.778Z,102135.06
2023-02-11T10:38:51.374Z,102130.59
2023-02-11T10:41:23.227Z,102133.47
2023-02-11T10:43:54.769Z,102125.91
2023-02-11T10:46:27.176Z,102114.03
2023-02-11T10:48:58.830Z,102108.53
2023-02-11T10:51:31.809Z,102097.75
2023-02-11T10:54:03.341Z,102094.72
2023-02-11T10:56:35.252Z,102095.81
2023-02-11T10:59:06.781Z,102110.38
2023-02-11T11:01:38.800Z,102114.34
2023-02-11T11:04:10.331Z,102119.47
2023-02-11T11:06:41.853Z,102091.50
2023-02-11T11:09:13.491Z,102096.66
2023-02-11T11:11:45.187Z,102085.56
2023-02-11T11:14:16.690Z,102080.06
2023-02-11T11:16:48.558Z,102078.09
2023-02-11T11:19:20.424Z,102093.16
2023-02-11T11:21:52.064Z,102070.44
2023-02-11T11:24:25.536Z,102090.53
2023-02-11T11:26:58.492Z,102077.78
2023-02-11T11:29:30.463Z,102073.25
2023-02-11T11:32:04.427Z,102066.03
2023-02-11T11:34:37.151Z,102086.19
2023-02-11T11:37:08.695Z,102079.56
2023-02-11T11:39:40.231Z,102088.22
2023-02-11T11:42:12.102Z,102100.78
2023-02-11T11:44:43.641Z,102101.13
2023-02-11T11:47:15.325Z,102103.56
2023-02-11T11:49:46.842Z,102097.50
2023-02-11T11:52:18.668Z,102091.19
2023-02-11T11:54:50.190Z,101979.38
2023-02-11T11:57:21.751Z,102108.41
2023-02-11T11:59:53.351Z,102090.25
2023-02-11T12:02:24.956Z,102081.00
2023-02-11T12:04:56.700Z,102078.00
2023-02-11T12:07:28.283Z,102083.47
2023-02-11T12:09:59.787Z,102098.06
2023-02-11T12:12:32.593Z,102088.84
2023-02-11T12:15:04.216Z,102090.94
2023-02-11T12:17:35.770Z,102097.59
2023-02-11T12:20:07.832Z,102082.66
2023-02-11T12:22:39.547Z,102076.03
2023-02-11T12:25:11.073Z,102071.75
2023-02-11T12:27:42.929Z,102076.25
2023-02-11T12:30:14.505Z,102080.41
2023-02-11T12:32:46.420Z,102083.72
2023-02-11T12:35:17.920Z,102089.41
2023-02-11T12:37:49.642Z,102085.09
2023-02-11T12:40:21.871Z,102080.44
2023-02-11T12:43:12.158Z,102084.31
2023-02-11T12:45:43.759Z,102079.81
2023-02-11T12:48:15.313Z,102076.31
2023-02-11T12:50:46.929Z,102074.69
2023-02-11T12:53:18.519Z,102070.72
2023-02-11T12:55:50.035Z,102082.81
2023-02-11T12:58:25.382Z,102067.91
2023-02-11T13:01:01.126Z,102074.25
2023-02-11T13:03:33.178Z,102079.91
2023-02-11T13:06:04.748Z,102069.94
2023-02-11T13:08:36.611Z,102089.97
2023-02-11T13:11:14.282Z,102095.44
2023-02-11T13:13:46.426Z,102098.59
2023-02-11T13:16:18.004Z,102095.81
2023-02-11T13:18:49.683Z,102087.34
2023-02-11T13:21:21.225Z,102094.16
2023-02-11T13:23:52.811Z,102081.22
2023-02-11T13:26:24.325Z,102090.00
2023-02-11T13:28:55.837Z,102104.09
2023-02-11T13:31:28.829Z,102100.78
2023-02-11T13:34:01.277Z,102119.03
2023-02-11T13:36:34.042Z,102119.00
2023-02-11T13:39:05.975Z,102126.47
2023-02-11T13:41:37.473Z,102125.81
2023-02-11T13:44:09.410Z,102127.25
2023-02-11T13:46:40.916Z,102128.28
2023-02-11T13:49:12.983Z,102122.34
2023-02-11T13:51:44.485Z,102134.94
2023-02-11T13:54:16.338Z,102125.97
2023-02-11T13:56:49.254Z,102123.81
2023-02-11T13:59:21.117Z,102126.63
2023-02-11T14:02:12.903Z,102129.06
2023-02-11T14:05:03.163Z,102135.88
2023-02-11T14:07:53.970Z,102131.53
2023-02-11T14:10:25.505Z,102136.84
2023-02-11T14:12:57.341Z,102141.31
2023-02-11T14:15:29.140Z,102138.50
2023-02-11T14:18:01.033Z,102143.94
2023-02-11T14:20:32.535Z,102144.31
2023-02-11T14:23:04.978Z,102145.94
2023-02-11T14:25:36.494Z,102147.44
2023-02-11T14:28:08.139Z,102151.06
2023-02-11T14:30:42.788Z,102145.63
2023-02-11T14:33:14.807Z,102143.09
2023-02-11T14:35:46.350Z,102148.91
2023-02-11T14:38:17.877Z,102143.44
2023-02-11T14:40:49.759Z,102138.16
2023-02-11T14:43:21.858Z,102139.66
2023-02-11T14:45:53.677Z,102136.16
2023-02-11T14:48:25.509Z,102063.44
2023-02-11T14:50:57.003Z,102140.78
2023-02-11T14:53:28.866Z,102148.75
2023-02-11T14:56:00.426Z,102147.06
2023-02-11T14:58:32.336Z,102159.00
2023-02-11T15:01:05.663Z,102164.31
2023-02-11T15:03:37.651Z,102166.97
2023-02-11T15:06:09.296Z,102171.09
2023-02-11T15:08:40.782Z,102170.59
2023-02-11T15:11:12.361Z,102170.28
2023-02-11T15:13:50.896Z,102168.63
2023-02-11T15:16:22.979Z,102167.94
2023-02-11T15:18:55.492Z,102172.75
2023-02-11T15:21:27.308Z,102183.84
2023-02-11T15:23:59.155Z,102183.66
2023-02-11T15:26:30.703Z,102185.16
2023-02-11T15:29:02.650Z,102187.34
2023-02-11T15:31:35.243Z,102194.63
2023-02-11T15:34:06.975Z,102199.25
2023-02-11T15:36:38.614Z,102191.44
2023-02-11T15:39:10.600Z,102186.16
2023-02-11T15:41:42.799Z,102201.38
2023-02-11T15:44:14.295Z,102206.38
2023-02-11T15:46:47.472Z,102207.91
2023-02-11T15:49:19.365Z,102204.44
2023-02-11T15:51:50.963Z,102208.22
2023-02-11T15:54:22.605Z,102213.84
2023-02-11T15:56:55.431Z,102091.41
2023-02-11T15:59:27.530Z,102216.69
2023-02-11T16:01:59.092Z,102215.19
2023-02-11T16:04:30.985Z,102217.31
2023-02-11T16:07:03.093Z,102215.50
2023-02-11T16:09:34.994Z,102206.72
2023-02-11T16:12:07.613Z,102214.66
2023-02-11T16:14:39.602Z,102215.34
2023-02-11T16:17:11.135Z,102224.25
2023-02-11T16:19:42.663Z,102217.13
2023-02-11T16:22:14.146Z,102102.63
2023-02-11T16:24:45.978Z,102223.94
2023-02-11T16:27:17.452Z,102233.53
2023-02-11T16:29:49.299Z,102237.03
2023-02-11T16:32:20.838Z,102226.09
2023-02-11T16:34:52.365Z,102223.28
2023-02-11T16:37:23.876Z,102220.47
2023-02-11T16:39:55.714Z,102222.47
2023-02-11T16:42:27.361Z,102232.91
2023-02-11T16:44:59.908Z,102237.22
2023-02-11T16:47:31.471Z,102240.03
2023-02-11T16:50:03.364Z,102250.63
2023-02-11T16:52:34.899Z,102243.50
2023-02-11T16:55:06.853Z,102241.38
2023-02-11T16:57:38.339Z,102242.19
2023-02-11T17:00:10.684Z,102253.44
2023-02-11T17:02:42.175Z,102259.72
2023-02-11T17:05:13.772Z,102272.50
2023-02-11T17:07:45.295Z,102269.69
2023-02-11T17:10:16.809Z,102285.44
2023-02-11T17:12:48.306Z,102289.97
2023-02-11T17:15:19.834Z,102286.78
2023-02-11T17:17:51.608Z,102275.53
2023-02-11T17:20:23.178Z,102289.28
2023-02-11T17:22:54.699Z,102278.88
2023-02-11T17:25:26.204Z,102291.31
2023-02-11T17:27:57.696Z,102303.22
2023-02-11T17:30:29.215Z,102300.09
2023-02-11T17:33:00.916Z,102311.53
2023-02-11T17:35:32.414Z,102308.22
2023-02-11T17:38:04.346Z,102294.31
2023-02-11T17:40:36.248Z,102305.91
2023-02-11T17:43:07.917Z,102316.84
2023-02-11T17:45:39.565Z,102326.13
2023-02-11T17:48:11.434Z,102331.28
2023-02-11T17:50:42.932Z,102328.34
2023-02-11T17:53:14.467Z,102329.19
2023-02-11T17:55:45.937Z,102331.75
2023-02-11T17:58:17.470Z,102329.41
2023-02-11T18:00:49.084Z,102334.09
2023-02-11T18:03:20.675Z,102335.25
2023-02-11T18:05:52.520Z,102349.16
2023-02-11T18:08:24.487Z,102358.13
2023-02-11T18:10:55.955Z,102350.00
2023-02-11T18:13:27.714Z,102345.22
2023-02-11T18:15:59.256Z,102351.97
2023-02-11T18:18:31.038Z,102349.69
2023-02-11T18:21:03.951Z,102356.28
2023-02-11T18:23:36.063Z,102359.94
2023-02-11T18:26:07.618Z,102359.78
2023-02-11T18:28:39.190Z,102373.72
2023-02-11T18:31:10.949Z,102379.56
2023-02-11T18:33:42.834Z,102376.09
2023-02-11T18:36:14.377Z,102385.81
2023-02-11T18:38:46.312Z,102384.56
2023-02-11T18:41:17.799Z,102389.19
2023-02-11T18:43:49.438Z,102394.50
2023-02-11T18:46:21.020Z,102410.25
2023-02-11T18:48:56.084Z,102413.72
2023-02-11T18:51:28.051Z,102424.03
2023-02-11T18:54:00.059Z,102421.38
2023-02-11T18:56:31.561Z,102427.50
2023-02-11T18:59:04.067Z,102426.53
2023-02-11T19:01:35.751Z,102437.28
2023-02-11T19:04:07.469Z,102433.66
2023-02-11T19:06:39.075Z,102439.63
2023-02-11T19:09:11.472Z,102436.00
2023-02-11T19:11:50.235Z,102438.63
2023-02-11T19:14:22.188Z,102447.75
2023-02-11T19:16:53.854Z,102441.44
2023-02-11T19:19:25.988Z,102450.91
2023-02-11T19:21:57.741Z,102454.56
2023-02-11T19:24:29.730Z,102462.34
2023-02-11T19:27:01.298Z,102463.19
2023-02-11T19:29:35.288Z,102463.66
2023-02-11T19:32:07.337Z,102471.47
2023-02-11T19:34:41.577Z,102465.16
2023-02-11T19:37:13.182Z,102471.16
2023-02-11T19:39:45.338Z,102466.00
2023-02-11T19:42:16.854Z,102467.66
2023-02-11T19:44:48.393Z,102471.97
2023-02-11T19:47:19.995Z,102468.97
2023-02-11T19:49:51.878Z,102463.50
2023-02-11T19:52:23.356Z,102470.16
2023-02-11T19:54:55.203Z,102348.31
2023-02-11T19:57:26.679Z,102461.06
2023-02-11T19:59:58.755Z,102468.50
2023-02-11T20:02:31.169Z,102468.50
2023-02-11T20:05:04.267Z,102469.31
2023-02-11T20:07:36.043Z,102483.06
2023-02-11T20:10:07.743Z,102487.38
2023-02-11T20:12:39.287Z,102488.38
2023-02-11T20:15:11.081Z,102488.97
2023-02-11T20:17:42.649Z,102501.25
2023-02-11T20:20:14.221Z,102503.38
2023-02-11T20:22:45.758Z,102501.84
2023-02-11T20:25:17.387Z,102495.44
2023-02-11T20:27:49.229Z,102506.31
2023-02-11T20:30:21.786Z,102501.94
2023-02-11T20:32:53.429Z,102504.13
2023-02-11T20:35:24.937Z,102500.63
2023-02-11T20:37:56.742Z,102499.28
2023-02-11T20:40:28.290Z,102507.22
2023-02-11T20:42:59.787Z,102523.31
2023-02-11T20:45:31.833Z,102519.66
2023-02-11T20:48:03.414Z,102529.28
2023-02-11T20:50:35.022Z,102530.28
2023-02-11T20:53:06.630Z,102534.75
2023-02-11T20:55:38.659Z,102535.41
2023-02-11T20:58:10.226Z,102536.25
2023-02-11T21:00:41.944Z,102543.53
2023-02-11T21:03:13.474Z,102548.84
2023-02-11T21:05:45.321Z,102541.03
2023-02-11T21:08:16.895Z,102545.19
2023-02-11T21:10:48.841Z,102540.34
2023-02-11T21:13:20.334Z,102540.50
2023-02-11T21:15:52.490Z,102548.91
2023-02-11T21:18:24.210Z,102551.56
2023-02-11T21:20:56.067Z,102548.75
2023-02-11T21:23:29.058Z,102562.31
2023-02-11T21:26:00.918Z,102563.97
2023-02-11T21:28:32.443Z,102568.59
2023-02-11T21:31:04.273Z,102578.53
2023-02-11T21:33:35.830Z,102574.88
2023-02-11T21:36:08.037Z,102356.06
2023-02-11T21:38:39.668Z,102597.00
2023-02-11T21:41:11.570Z,102604.13
2023-02-11T21:43:43.151Z,102600.81
2023-02-11T21:46:14.748Z,102594.50
2023-02-11T21:48:46.413Z,102605.25
2023-02-11T21:51:18.906Z,102602.47
2023-02-11T21:53:50.404Z,102608.31
2023-02-11T21:56:22.421Z,102613.75
2023-02-11T21:58:54.151Z,102621.09
2023-02-11T22:01:26.020Z,102611.94
2023-02-11T22:03:57.519Z,102636.19
2023-02-11T22:06:31.439Z,102616.94
2023-02-11T22:09:02.923Z,102623.38
2023-02-11T22:11:34.691Z,102632.16
2023-02-11T22:14:06.178Z,102635.13
2023-02-11T22:16:38.121Z,102625.34
2023-02-11T22:19:09.690Z,102638.22
2023-02-11T22:21:43.067Z,102650.19
2023-02-11T22:24:14.555Z,102659.38
2023-02-11T22:26:46.396Z,102655.34
2023-02-11T22:29:17.952Z,102671.09
2023-02-11T22:31:49.870Z,102665.50
2023-02-11T22:34:21.391Z,102663.84
2023-02-11T22:36:53.301Z,102668.47
2023-02-11T22:39:24.847Z,102679.06
2023-02-11T22:41:56.876Z,102682.16
2023-02-11T22:44:28.373Z,102686.19
2023-02-11T22:47:00.311Z,102700.28
2023-02-11T22:49:33.196Z,102693.00
2023-02-11T22:52:04.758Z,102694.97
2023-02-11T22:54:36.349Z,102696.34
2023-02-11T22:57:08.216Z,102697.72
2023-02-11T22:59:39.702Z,102703.59
2023-02-11T23:02:11.517Z,102707.41
2023-02-11T23:04:43.206Z,102699.88
2023-02-11T23:07:14.789Z,102710.50
2023-02-11T23:09:46.288Z,102704.59
2023-02-11T23:12:17.825Z,102706.03
2023-02-11T23:14:49.356Z,102709.13
2023-02-11T23:17:20.905Z,102710.50
2023-02-11T23:19:52.425Z,102723.06
2023-02-11T23:22:24.180Z,102726.41
2023-02-11T23:24:55.715Z,102719.72
2023-02-11T23:27:27.545Z,102722.22
2023-02-11T23:29:59.064Z,102723.06
2023-02-11T23:32:30.989Z,102726.41
2023-02-11T23:35:02.603Z,102730.72
2023-02-11T23:37:34.214Z,102728.91
2023-02-11T23:40:05.772Z,102729.06
2023-02-11T23:42:37.631Z,102737.00
2023-02-11T23:45:09.123Z,102732.28
2023-02-11T23:47:41.885Z,102731.69
2023-02-11T23:50:13.371Z,102730.03
2023-02-11T23:52:45.147Z,102732.44
2023-02-11T23:55:16.656Z,102738.31
2023-02-11T23:57:48.678Z,102740.53
